Terminal Aerodrome Forecast
Issued by NWS Cleveland, OH

Home | Current Version | Previous Version | Graphics & Text | Print | Product List | Glossary Off
Versions: 1 2 3 4 5 6 7 8 9 10 11 12 13 14 15 16 17 18 19 20

000
FTUS41 KCLE 311100
TAFYNG
TAF
KYNG 311124Z 3112/0112 13008KT P6SM -SHRASN OVC050
     FM311400 18011KT P6SM VCSH OVC050
     FM311600 26012KT P6SM OVC025
     FM311800 35012KT P6SM OVC025
     FM312300 34006KT P6SM SCT035 BKN080
     FM010200 VRB04KT P6SM BKN120
     FM010800 20004KT P6SM BKN060=

USA.gov is the U.S. government's official web portal to all federal, state and local government web resources and services.